Time;durP1;ratioP1;P1;durP2;ratioP2;P2;SDS_P1;SDS_P2;PMS_P1;PMS_P2;Temp;Humidity;BMP_temperature;BMP_pressure;BME280_temperature;BME280_humidity;BME280_pressure;Samples;Min_cycle;Max_cycle;Signal;HPM_P1;HPM_P2
2023/12/30 00:01:48;;;;;;;10.65;2.60;;;;;;;7.81;99.90;100923.31;5070393;28;20119;-82
2023/12/30 00:04:13;;;;;;;15.05;2.40;;;;;;;7.59;100.00;100925.28;5070392;28;20041;-82
2023/12/30 00:06:40;;;;;;;15.95;2.92;;;;;;;7.58;100.00;100920.88;5070380;28;20071;-82
2023/12/30 00:09:06;;;;;;;12.18;2.28;;;;;;;7.64;100.00;100931.41;5071618;28;20086;-83
2023/12/30 00:11:31;;;;;;;14.93;2.83;;;;;;;7.60;100.00;100939.34;5053945;28;20036;-81
2023/12/30 00:13:57;;;;;;;11.55;2.50;;;;;;;7.49;100.00;100942.03;5052388;28;20075;-82
2023/12/30 00:16:22;;;;;;;13.25;2.83;;;;;;;7.61;100.00;100948.97;5057238;28;20479;-83
2023/12/30 00:18:48;;;;;;;8.45;2.30;;;;;;;7.66;100.00;100934.00;5066035;28;20068;-83
2023/12/30 00:21:19;;;;;;;11.73;2.40;;;;;;;7.57;100.00;100947.25;5054791;28;20469;-82
2023/12/30 00:23:44;;;;;;;14.50;3.20;;;;;;;7.47;100.00;100954.38;5069118;28;20468;-82
2023/12/30 00:26:27;;;;;;;10.00;2.20;;;;;;;7.42;100.00;100969.31;5071270;28;20062;-82
2023/12/30 00:29:11;;;;;;;13.60;2.70;;;;;;;7.48;100.00;100970.16;5061240;28;20103;-83
2023/12/30 00:31:37;;;;;;;10.70;2.45;;;;;;;7.40;100.00;100971.97;5061569;28;20041;-82
2023/12/30 00:34:02;;;;;;;15.55;3.05;;;;;;;7.42;100.00;100980.75;5064623;28;20426;-83
2023/12/30 00:36:28;;;;;;;16.30;2.50;;;;;;;7.48;100.00;100983.31;5070239;28;20090;-83
2023/12/30 00:38:55;;;;;;;15.60;2.70;;;;;;;7.35;100.00;100981.66;5070259;28;20498;-83
2023/12/30 00:41:25;;;;;;;11.82;2.83;;;;;;;7.32;100.00;100984.34;5069844;28;20058;-83
2023/12/30 00:43:50;;;;;;;14.45;2.83;;;;;;;7.32;100.00;100985.19;5071164;28;20036;-83
2023/12/30 00:46:19;;;;;;;10.07;2.50;;;;;;;7.28;100.00;100979.94;5057702;28;20040;-83
2023/12/30 00:48:45;;;;;;;10.50;2.50;;;;;;;7.22;100.00;100967.69;5067981;28;20215;-82
2023/12/30 00:51:10;;;;;;;16.67;2.70;;;;;;;7.24;100.00;100968.53;5054613;28;20053;-83
2023/12/30 00:53:36;;;;;;;9.13;2.13;;;;;;;7.20;100.00;100979.13;5064736;28;20458;-82
2023/12/30 00:56:02;;;;;;;15.57;2.97;;;;;;;7.21;100.00;100983.50;5053911;28;20044;-83
2023/12/30 00:58:27;;;;;;;14.02;2.63;;;;;;;7.19;100.00;100988.75;5055252;28;20711;-83
2023/12/30 01:00:53;;;;;;;13.50;2.53;;;;;;;7.14;100.00;101000.22;5065852;28;20036;-83
2023/12/30 01:03:18;;;;;;;13.18;2.53;;;;;;;7.15;100.00;100991.47;5071147;28;20501;-83
2023/12/30 01:05:44;;;;;;;10.20;2.55;;;;;;;7.11;100.00;100999.34;5056177;28;20035;-83
2023/12/30 01:08:10;;;;;;;14.27;2.50;;;;;;;7.07;100.00;101002.00;5058622;28;20090;-83
2023/12/30 01:10:35;;;;;;;16.92;2.78;;;;;;;7.09;100.00;100998.47;5015148;28;20037;-83
2023/12/30 01:13:01;;;;;;;10.77;2.78;;;;;;;7.09;100.00;101000.25;5073093;28;20021;-83
2023/12/30 01:15:27;;;;;;;19.30;2.90;;;;;;;7.05;100.00;101009.06;5071885;28;20037;-83
2023/12/30 01:17:52;;;;;;;7.95;2.13;;;;;;;7.07;100.00;101004.63;5064236;28;20032;-83
2023/12/30 01:20:18;;;;;;;16.17;2.90;;;;;;;7.07;100.00;101015.16;5056041;28;20052;-83
2023/12/30 01:22:43;;;;;;;13.50;2.50;;;;;;;7.03;100.00;101008.19;5072837;28;20502;-83
2023/12/30 01:25:09;;;;;;;8.43;2.28;;;;;;;6.99;100.00;101009.94;5072974;28;20036;-82
2023/12/30 01:27:34;;;;;;;12.43;3.03;;;;;;;6.99;100.00;101014.34;5051245;28;20495;-82
2023/12/30 01:30:00;;;;;;;11.65;2.22;;;;;;;6.98;100.00;101024.00;5054818;28;20457;-83
2023/12/30 01:32:26;;;;;;;9.18;2.60;;;;;;;7.05;100.00;101016.97;5072876;28;20036;-83
2023/12/30 01:34:52;;;;;;;14.63;3.63;;;;;;;7.00;100.00;101022.25;5072299;28;20028;-83
2023/12/30 01:37:18;;;;;;;7.20;2.28;;;;;;;6.97;100.00;101024.00;5029880;28;20036;-83
2023/12/30 01:39:44;;;;;;;15.68;3.05;;;;;;;7.08;100.00;101024.84;5072278;28;20043;-82
2023/12/30 01:42:09;;;;;;;9.10;2.63;;;;;;;7.02;100.00;101025.75;5049265;28;20076;-82
2023/12/30 01:44:35;;;;;;;12.98;2.70;;;;;;;6.99;100.00;101024.88;5050160;28;20064;-83
2023/12/30 01:47:01;;;;;;;12.18;2.80;;;;;;;6.95;100.00;101020.47;5052796;28;20048;-83
2023/12/30 01:49:27;;;;;;;9.77;2.30;;;;;;;6.98;100.00;101036.28;5043206;28;20379;-83
2023/12/30 01:51:53;;;;;;;9.85;2.58;;;;;;;6.94;100.00;101031.91;5035951;28;20136;-83
2023/12/30 01:54:21;;;;;;;13.45;2.78;;;;;;;6.89;100.00;101031.91;5036242;28;20789;-83
2023/12/30 01:56:49;;;;;;;10.80;2.38;;;;;;;6.89;100.00;101043.31;5073513;28;20036;-83
2023/12/30 01:59:18;;;;;;;12.25;2.63;;;;;;;6.91;100.00;101045.97;5072049;28;20174;-84
2023/12/30 02:01:47;;;;;;;12.75;2.97;;;;;;;7.02;100.00;101062.63;5047344;28;20407;-84
2023/12/30 02:04:12;;;;;;;15.40;2.58;;;;;;;6.94;100.00;101060.88;5072511;28;20033;-84
2023/12/30 02:06:42;;;;;;;13.98;2.97;;;;;;;6.97;100.00;101053.81;5049099;28;20044;-83
2023/12/30 02:09:08;;;;;;;10.23;2.65;;;;;;;6.90;100.00;101044.22;5072858;28;20427;-83
2023/12/30 02:11:36;;;;;;;15.50;2.67;;;;;;;6.93;100.00;101051.22;5055752;28;20040;-83
2023/12/30 02:14:01;;;;;;;14.85;3.22;;;;;;;6.94;100.00;101047.72;5053791;28;20029;-82
2023/12/30 02:16:27;;;;;;;10.45;2.42;;;;;;;6.95;100.00;101065.25;5073462;28;20158;-83
2023/12/30 02:18:52;;;;;;;16.83;2.92;;;;;;;6.93;100.00;101057.38;5054571;28;20040;-83
2023/12/30 02:21:18;;;;;;;8.52;2.60;;;;;;;7.02;100.00;101053.81;5072026;28;20407;-83
2023/12/30 02:23:43;;;;;;;14.82;2.95;;;;;;;6.93;100.00;101062.63;5071320;28;20539;-83
2023/12/30 02:26:09;;;;;;;16.08;2.65;;;;;;;6.92;100.00;101058.22;5053194;28;20445;-84
2023/12/30 02:28:34;;;;;;;15.93;2.70;;;;;;;6.92;100.00;101063.50;5062727;28;20498;-83
2023/12/30 02:31:01;;;;;;;12.57;2.53;;;;;;;6.88;100.00;101070.53;5071802;28;20472;-83
2023/12/30 02:33:26;;;;;;;21.60;3.22;;;;;;;6.87;100.00;101067.91;5071567;28;20032;-84
2023/12/30 02:35:52;;;;;;;19.25;4.30;;;;;;;6.87;100.00;101084.59;5071899;28;20048;-83
2023/12/30 02:38:17;;;;;;;16.13;2.60;;;;;;;6.84;100.00;101081.94;5072972;28;20028;-83
2023/12/30 02:40:44;;;;;;;10.80;2.30;;;;;;;6.84;100.00;101083.72;5047540;28;20032;-83
2023/12/30 02:43:10;;;;;;;15.40;2.90;;;;;;;6.82;100.00;101077.56;5055112;28;20033;-83
2023/12/30 02:45:35;;;;;;;15.00;2.50;;;;;;;6.79;100.00;101078.47;5071692;28;20379;-83
2023/12/30 02:48:01;;;;;;;17.67;2.53;;;;;;;6.78;100.00;101084.63;5073064;28;20123;-83
2023/12/30 02:50:27;;;;;;;13.63;2.60;;;;;;;6.79;100.00;101078.47;5072312;28;20123;-83
2023/12/30 02:52:52;;;;;;;14.07;3.00;;;;;;;6.77;100.00;101089.88;5054902;28;20487;-83
2023/12/30 02:55:18;;;;;;;9.38;2.53;;;;;;;6.81;100.00;101081.09;5071455;28;20495;-83
2023/12/30 02:57:43;;;;;;;14.38;2.92;;;;;;;6.76;100.00;101077.59;5074924;28;20047;-82
2023/12/30 03:00:09;;;;;;;16.73;2.92;;;;;;;6.82;100.00;101080.22;5054536;28;20137;-83
2023/12/30 03:02:36;;;;;;;15.50;2.63;;;;;;;6.84;100.00;101094.25;5071540;28;20024;-83
2023/12/30 03:05:02;;;;;;;18.02;3.78;;;;;;;6.81;100.00;101089.88;5070995;28;20403;-83
2023/12/30 03:07:28;;;;;;;13.05;2.72;;;;;;;6.77;100.00;101082.84;5071603;28;20105;-83
2023/12/30 03:09:53;;;;;;;12.32;3.08;;;;;;;6.78;100.00;101084.63;5048214;28;20468;-83
2023/12/30 03:12:19;;;;;;;16.27;3.55;;;;;;;6.79;100.00;101085.47;5070469;28;20044;-83
2023/12/30 03:14:45;;;;;;;12.70;3.03;;;;;;;6.82;100.00;101096.88;5052540;28;20029;-83
2023/12/30 03:17:10;;;;;;;12.77;3.35;;;;;;;6.79;100.00;101091.63;5072398;28;20118;-83
2023/12/30 03:19:36;;;;;;;17.33;3.60;;;;;;;6.77;100.00;101090.75;5071067;28;20043;-83
2023/12/30 03:22:02;;;;;;;20.85;4.50;;;;;;;6.75;100.00;101096.88;5059625;28;20089;-83
2023/12/30 03:24:27;;;;;;;15.85;2.70;;;;;;;6.74;100.00;101097.78;5054238;28;20443;-83
2023/12/30 03:26:53;;;;;;;15.82;3.40;;;;;;;6.72;100.00;101100.41;5054403;28;20557;-83
2023/12/30 03:29:20;;;;;;;14.02;3.08;;;;;;;6.70;100.00;101093.38;5037333;28;20033;-83
2023/12/30 03:31:46;;;;;;;14.18;3.40;;;;;;;6.71;100.00;101103.06;5072084;28;20025;-83
2023/12/30 03:34:12;;;;;;;20.65;3.78;;;;;;;6.63;100.00;101084.66;5071704;28;20102;-83
2023/12/30 03:36:37;;;;;;;16.00;3.33;;;;;;;6.65;100.00;101094.28;5072008;28;20451;-83
2023/12/30 03:39:05;;;;;;;19.77;3.40;;;;;;;6.58;100.00;101092.56;5050532;28;20090;-83
2023/12/30 03:41:30;;;;;;;13.85;2.42;;;;;;;6.64;100.00;101094.28;5062610;28;20040;-82
2023/12/30 03:43:56;;;;;;;16.67;3.58;;;;;;;6.59;100.00;101101.31;5072113;28;20215;-83
2023/12/30 03:46:23;;;;;;;19.13;3.15;;;;;;;6.58;100.00;101110.09;5054113;28;20060;-83
2023/12/30 03:48:48;;;;;;;12.77;2.97;;;;;;;6.59;100.00;101103.94;5070960;28;20443;-83
2023/12/30 03:51:14;;;;;;;20.73;3.38;;;;;;;6.55;100.00;101110.06;5070424;28;20053;-82
2023/12/30 03:53:40;;;;;;;13.15;2.92;;;;;;;6.56;100.00;101115.34;5053994;28;20429;-82
2023/12/30 03:56:06;;;;;;;16.02;3.45;;;;;;;6.58;100.00;101110.09;5070224;28;20550;-83
2023/12/30 03:58:32;;;;;;;14.75;2.83;;;;;;;6.58;100.00;101107.47;5037224;28;20021;-83
2023/12/30 04:00:57;;;;;;;16.17;3.20;;;;;;;6.50;100.00;101103.94;5069406;28;20032;-83
2023/12/30 04:03:23;;;;;;;17.27;3.10;;;;;;;6.49;100.00;101107.47;5053657;28;20036;-83
2023/12/30 04:05:49;;;;;;;17.48;3.63;;;;;;;6.47;100.00;101110.97;5053631;28;20040;-83
2023/12/30 04:08:14;;;;;;;25.20;3.70;;;;;;;6.45;100.00;101110.09;5070667;28;20032;-83
2023/12/30 04:10:40;;;;;;;15.13;3.15;;;;;;;6.50;100.00;101110.06;5036973;28;20043;-83
2023/12/30 04:13:06;;;;;;;15.27;2.90;;;;;;;6.45;100.00;101123.25;5049451;28;20053;-83
2023/12/30 04:15:31;;;;;;;22.40;3.03;;;;;;;6.43;100.00;101109.22;5083015;28;20037;-83
2023/12/30 04:17:57;;;;;;;13.65;2.88;;;;;;;6.42;100.00;101119.75;5053473;28;20033;-76
2023/12/30 04:20:22;;;;;;;14.52;3.70;;;;;;;6.40;100.00;101121.50;5049163;28;20060;-76
2023/12/30 04:22:48;;;;;;;21.27;3.45;;;;;;;6.37;100.00;101113.59;5053506;28;20053;-77
2023/12/30 04:25:13;;;;;;;14.68;2.92;;;;;;;6.43;100.00;101119.75;5073844;28;20043;-77
2023/12/30 04:27:39;;;;;;;16.27;3.00;;;;;;;6.41;100.00;101104.84;5068739;28;20131;-76
2023/12/30 04:30:05;;;;;;;17.33;2.95;;;;;;;6.39;100.00;101106.59;5038615;28;20040;-77
2023/12/30 04:32:30;;;;;;;22.05;4.28;;;;;;;6.37;100.00;101118.88;5055724;28;20418;-76
2023/12/30 04:34:56;;;;;;;15.05;2.30;;;;;;;6.38;100.00;101112.72;5054528;28;20045;-77
2023/12/30 04:37:21;;;;;;;14.00;2.80;;;;;;;6.32;100.00;101120.63;5055131;28;20025;-77
2023/12/30 04:39:48;;;;;;;13.70;3.20;;;;;;;6.23;100.00;101114.50;5055780;28;20131;-77
2023/12/30 04:42:14;;;;;;;15.15;3.47;;;;;;;6.22;100.00;101127.63;5074630;28;20036;-77
2023/12/30 04:44:41;;;;;;;19.83;3.78;;;;;;;6.20;100.00;101122.34;5039668;28;20116;-77
2023/12/30 04:47:07;;;;;;;12.23;3.05;;;;;;;6.21;100.00;101132.03;5065874;28;20447;-77
2023/12/30 04:49:32;;;;;;;17.42;3.22;;;;;;;6.18;100.00;101134.66;5074055;28;20097;-76
2023/12/30 04:51:58;;;;;;;11.18;2.85;;;;;;;6.16;100.00;101136.41;5071948;28;20048;-77
2023/12/30 04:54:25;;;;;;;18.52;2.38;;;;;;;6.12;100.00;101133.75;5072228;28;20040;-77
2023/12/30 04:56:51;;;;;;;11.55;2.58;;;;;;;6.11;100.00;101132.91;5073173;28;20608;-77
2023/12/30 04:59:18;;;;;;;17.08;3.03;;;;;;;6.13;100.00;101140.75;5073045;28;20033;-77
2023/12/30 05:01:44;;;;;;;12.77;2.58;;;;;;;6.13;100.00;101144.28;5074231;28;20420;-77
2023/12/30 05:04:09;;;;;;;16.17;2.95;;;;;;;6.14;100.00;101146.03;5073233;28;20090;-77
2023/12/30 05:06:35;;;;;;;14.40;2.95;;;;;;;6.13;100.00;101141.66;5039614;28;20376;-76
2023/12/30 05:09:01;;;;;;;12.77;2.58;;;;;;;6.11;100.00;101147.75;5073066;28;20078;-76
2023/12/30 05:11:26;;;;;;;12.57;3.13;;;;;;;6.05;100.00;101137.25;5074293;28;20231;-77
2023/12/30 05:13:52;;;;;;;11.80;2.38;;;;;;;6.07;100.00;101151.28;5070935;28;20124;-77
2023/12/30 05:16:17;;;;;;;23.83;3.55;;;;;;;6.09;100.00;101157.44;5054859;28;20422;-77
2023/12/30 05:18:43;;;;;;;15.55;2.60;;;;;;;6.08;100.00;101160.91;5073468;28;20041;-77
2023/12/30 05:21:14;;;;;;;18.08;2.83;;;;;;;6.13;100.00;101154.81;5073888;28;20104;-77
2023/12/30 05:23:40;;;;;;;15.90;2.72;;;;;;;6.14;100.00;101158.31;5072975;28;20116;-77
2023/12/30 05:26:06;;;;;;;19.70;3.22;;;;;;;6.13;100.00;101154.81;5068118;28;20032;-76
2023/12/30 05:28:31;;;;;;;21.40;2.80;;;;;;;6.15;100.00;101157.41;5064799;28;20481;-76
2023/12/30 05:30:57;;;;;;;20.80;2.67;;;;;;;6.09;100.00;101155.66;5065849;28;20032;-76
2023/12/30 05:33:23;;;;;;;13.38;2.50;;;;;;;6.09;100.00;101157.44;5072780;28;20063;-76
2023/12/30 05:35:49;;;;;;;15.70;2.55;;;;;;;6.06;100.00;101165.28;5063350;28;20045;-76
2023/12/30 05:38:15;;;;;;;12.23;2.65;;;;;;;6.03;100.00;101164.44;5072725;28;20537;-76
2023/12/30 05:40:40;;;;;;;15.88;2.83;;;;;;;5.99;100.00;101167.91;5055944;28;20039;-76
2023/12/30 05:43:06;;;;;;;13.13;3.03;;;;;;;6.02;100.00;101164.41;5051051;28;20484;-76
2023/12/30 05:45:32;;;;;;;19.95;2.88;;;;;;;6.01;100.00;101175.81;5053378;28;20067;-75
2023/12/30 05:47:57;;;;;;;12.30;3.00;;;;;;;5.96;100.00;101181.06;5070360;28;20352;-76
2023/12/30 05:50:23;;;;;;;16.35;3.38;;;;;;;5.91;100.00;101181.88;5072063;28;20052;-76
2023/12/30 05:52:48;;;;;;;14.73;2.67;;;;;;;5.94;100.00;101190.69;5070630;28;20024;-76
2023/12/30 05:55:14;;;;;;;16.90;3.22;;;;;;;5.92;100.00;101196.78;5063840;28;20116;-76
2023/12/30 05:57:39;;;;;;;21.85;3.25;;;;;;;5.89;100.00;101189.78;5073475;28;20120;-76
2023/12/30 06:00:07;;;;;;;17.27;2.70;;;;;;;5.87;100.00;101191.50;5073254;28;20048;-76
2023/12/30 06:02:38;;;;;;;19.83;3.42;;;;;;;5.88;100.00;101190.63;5073440;28;20111;-76
2023/12/30 06:05:03;;;;;;;23.63;3.30;;;;;;;5.82;100.00;101182.72;5067050;28;20123;-76
2023/12/30 06:07:29;;;;;;;11.88;2.75;;;;;;;5.79;100.00;101177.47;5072018;28;20093;-76
2023/12/30 06:09:54;;;;;;;17.10;2.97;;;;;;;5.75;100.00;101183.59;5066906;28;20037;-76
2023/12/30 06:12:23;;;;;;;18.70;3.42;;;;;;;5.75;100.00;101189.72;5073223;28;20083;-77
2023/12/30 06:14:49;;;;;;;20.73;3.00;;;;;;;5.72;100.00;101179.19;5073095;28;20590;-76
2023/12/30 06:17:14;;;;;;;17.77;3.13;;;;;;;5.74;100.00;101182.72;5071990;28;20106;-76
2023/12/30 06:19:40;;;;;;;17.67;3.10;;;;;;;5.74;100.00;101182.72;5071926;28;20044;-76
2023/12/30 06:22:06;;;;;;;20.95;3.00;;;;;;;5.74;100.00;101185.34;5072675;28;20055;-76
2023/12/30 06:24:33;;;;;;;19.92;3.58;;;;;;;5.71;100.00;101190.59;5073148;28;20047;-76
2023/12/30 06:26:58;;;;;;;22.77;3.50;;;;;;;5.74;100.00;101192.34;5071852;28;20085;-76
2023/12/30 06:29:26;;;;;;;13.07;2.97;;;;;;;5.74;100.00;101195.84;5071109;28;20055;-76
2023/12/30 06:31:52;;;;;;;13.48;3.00;;;;;;;5.72;100.00;101200.22;5071696;28;20060;-76
2023/12/30 06:34:18;;;;;;;21.65;4.72;;;;;;;5.68;100.00;101203.69;5054434;28;20131;-76
2023/12/30 06:36:45;;;;;;;19.63;3.88;;;;;;;5.70;100.00;101214.22;5051531;28;20039;-76
2023/12/30 06:39:12;;;;;;;17.60;3.20;;;;;;;5.67;100.00;101215.09;5054887;28;20029;-77
2023/12/30 06:41:39;;;;;;;16.58;3.05;;;;;;;5.64;100.00;101206.31;5051496;28;20044;-77
2023/12/30 06:44:04;;;;;;;22.02;2.92;;;;;;;5.65;100.00;101211.56;5082002;28;20036;-77
2023/12/30 06:46:30;;;;;;;16.42;3.17;;;;;;;5.61;100.00;101215.03;5050099;28;20396;-77
2023/12/30 06:48:55;;;;;;;11.00;2.53;;;;;;;5.58;100.00;101204.53;5063247;28;20369;-77
2023/12/30 06:51:21;;;;;;;16.52;4.18;;;;;;;5.59;100.00;101203.69;5070837;28;20052;-77
2023/12/30 06:53:46;;;;;;;25.20;3.95;;;;;;;5.55;100.00;101205.41;5071337;28;20037;-77
2023/12/30 06:56:12;;;;;;;17.02;2.88;;;;;;;5.55;100.00;101209.78;5054132;28;20079;-77
2023/12/30 06:58:37;;;;;;;20.50;3.30;;;;;;;5.56;100.00;101217.69;5071345;28;20135;-77
2023/12/30 07:01:04;;;;;;;20.80;3.25;;;;;;;5.57;100.00;101214.16;5051020;28;20125;-77
2023/12/30 07:03:30;;;;;;;13.88;2.97;;;;;;;5.57;100.00;101202.78;5087747;28;20046;-76
2023/12/30 07:05:55;;;;;;;23.20;4.03;;;;;;;5.58;100.00;101215.91;5053950;28;20041;-77
2023/12/30 07:08:21;;;;;;;16.38;2.65;;;;;;;5.57;100.00;101216.78;5071005;28;20111;-77
2023/12/30 07:10:46;;;;;;;18.08;3.00;;;;;;;5.57;100.00;101215.94;5060453;28;20399;-77
2023/12/30 07:13:12;;;;;;;14.80;2.70;;;;;;;5.58;100.00;101222.94;5068204;28;20514;-77
2023/12/30 07:15:38;;;;;;;21.50;3.25;;;;;;;5.56;100.00;101224.66;5053140;28;20066;-77
2023/12/30 07:18:04;;;;;;;25.95;4.00;;;;;;;5.55;100.00;101217.66;5070923;28;20036;-77
2023/12/30 07:20:29;;;;;;;12.98;3.20;;;;;;;5.55;100.00;101213.28;5053844;28;20036;-77
2023/12/30 07:22:56;;;;;;;23.73;3.47;;;;;;;5.56;100.00;101219.41;5070741;28;20036;-77
2023/12/30 07:25:21;;;;;;;20.15;3.92;;;;;;;5.55;100.00;101212.41;5070532;28;20036;-77
2023/12/30 07:27:47;;;;;;;17.10;3.45;;;;;;;5.55;100.00;101208.03;5070496;28;20047;-77
2023/12/30 07:30:13;;;;;;;14.00;3.72;;;;;;;5.51;100.00;101214.13;5053795;28;20036;-77
2023/12/30 07:32:39;;;;;;;12.07;2.78;;;;;;;5.55;100.00;101222.91;5053783;28;20031;-77
2023/12/30 07:35:05;;;;;;;18.98;3.53;;;;;;;5.56;100.00;101225.56;5070185;28;20048;-76
2023/12/30 07:37:32;;;;;;;16.77;4.22;;;;;;;5.52;100.00;101215.03;5071504;28;20044;-76
2023/12/30 07:39:58;;;;;;;15.13;3.38;;;;;;;5.55;100.00;101215.03;5070118;28;20044;-76
2023/12/30 07:42:23;;;;;;;14.15;2.63;;;;;;;5.55;100.00;101221.16;5071983;28;20474;-76
2023/12/30 07:44:51;;;;;;;15.13;3.20;;;;;;;5.55;100.00;101231.66;5050045;28;20060;-76
2023/12/30 07:47:17;;;;;;;13.82;2.95;;;;;;;5.58;100.00;101233.44;5062270;28;20098;-76
2023/12/30 07:49:42;;;;;;;14.20;2.95;;;;;;;5.57;100.00;101239.56;5070590;28;20048;-76
2023/12/30 07:52:08;;;;;;;19.95;3.08;;;;;;;5.58;100.00;101243.94;5071333;28;20476;-76
2023/12/30 07:54:33;;;;;;;9.13;2.58;;;;;;;5.58;100.00;101244.81;5068661;28;20033;-76
2023/12/30 07:56:59;;;;;;;18.58;2.97;;;;;;;5.57;100.00;101243.06;5061940;28;20048;-76
2023/12/30 07:59:24;;;;;;;19.10;3.40;;;;;;;5.59;100.00;101261.47;5065051;28;20024;-76
2023/12/30 08:01:51;;;;;;;14.07;3.05;;;;;;;5.60;100.00;101263.22;5059501;28;20043;-76
2023/12/30 08:04:16;;;;;;;19.27;3.58;;;;;;;5.58;100.00;101260.56;5071465;28;20438;-76
2023/12/30 08:06:42;;;;;;;15.25;2.97;;;;;;;5.65;100.00;101261.50;5069925;28;20119;-76
2023/12/30 08:09:09;;;;;;;17.77;3.53;;;;;;;5.69;100.00;101265.03;5068964;28;20033;-76
2023/12/30 08:11:35;;;;;;;17.50;2.95;;;;;;;5.67;100.00;101269.41;5069736;28;20050;-76
2023/12/30 08:14:01;;;;;;;24.50;3.70;;;;;;;5.68;100.00;101271.16;5071227;28;20043;-77
2023/12/30 08:16:26;;;;;;;19.63;3.30;;;;;;;5.67;100.00;101272.03;5060842;28;20349;-76
2023/12/30 08:18:52;;;;;;;21.92;3.88;;;;;;;5.71;100.00;101264.16;5053981;28;20043;-76
2023/12/30 08:21:17;;;;;;;15.80;2.58;;;;;;;5.74;100.00;101271.19;5052985;28;20033;-76
2023/12/30 08:23:43;;;;;;;19.38;2.65;;;;;;;5.73;100.00;101265.03;5069729;28;20032;-76
2023/12/30 08:26:08;;;;;;;20.80;3.72;;;;;;;5.79;100.00;101266.84;5069954;28;20028;-76
2023/12/30 08:28:35;;;;;;;11.82;2.63;;;;;;;5.82;100.00;101266.84;5071003;28;20074;-76
2023/12/30 08:31:01;;;;;;;20.42;3.10;;;;;;;5.84;100.00;101269.50;5064494;28;20032;-76
2023/12/30 08:33:27;;;;;;;15.00;3.05;;;;;;;5.84;100.00;101270.34;5061801;28;20217;-76
2023/12/30 08:35:53;;;;;;;13.73;3.00;;;;;;;5.85;100.00;101268.59;5057919;28;20421;-76
2023/12/30 08:38:18;;;;;;;18.02;3.10;;;;;;;5.89;100.00;101273.88;5070720;28;20460;-76
2023/12/30 08:40:44;;;;;;;17.92;2.50;;;;;;;5.92;100.00;101260.75;5068921;28;20119;-76
2023/12/30 08:43:10;;;;;;;19.60;3.70;;;;;;;5.95;100.00;101259.91;5063555;28;20036;-75
2023/12/30 08:45:36;;;;;;;14.70;3.15;;;;;;;5.96;100.00;101257.31;5046954;28;20083;-76
2023/12/30 08:48:03;;;;;;;18.15;3.58;;;;;;;6.03;100.00;101263.44;5052905;28;20470;-76
2023/12/30 08:50:32;;;;;;;21.77;2.70;;;;;;;6.08;100.00;101260.81;5069245;28;20032;-76
2023/12/30 08:52:58;;;;;;;17.80;3.70;;;;;;;6.09;100.00;101258.22;5064861;28;20025;-75
2023/12/30 08:55:23;;;;;;;17.98;3.00;;;;;;;6.11;100.00;101264.38;5061738;28;20032;-75
2023/12/30 08:57:49;;;;;;;17.75;3.78;;;;;;;6.22;100.00;101270.50;5069394;28;20028;-76
2023/12/30 09:00:15;;;;;;;24.15;3.90;;;;;;;6.20;100.00;101271.38;5070457;28;20046;-76
2023/12/30 09:02:46;;;;;;;19.55;2.60;;;;;;;6.31;100.00;101281.97;5070747;28;20086;-76
2023/12/30 09:05:20;;;;;;;19.73;3.17;;;;;;;6.27;100.00;101281.06;5069053;28;20037;-76
2023/12/30 09:07:48;;;;;;;21.98;3.17;;;;;;;6.32;100.00;101278.44;5070769;28;20129;-76
2023/12/30 09:10:18;;;;;;;18.88;3.33;;;;;;;6.32;100.00;101287.19;5071276;28;20040;-76
2023/12/30 09:12:44;;;;;;;11.23;3.08;;;;;;;6.36;100.00;101290.75;5063758;28;20464;-76
2023/12/30 09:15:10;;;;;;;18.58;3.40;;;;;;;6.38;100.00;101295.13;5069688;28;20048;-75
2023/12/30 09:17:35;;;;;;;21.95;3.72;;;;;;;6.39;100.00;101299.50;5074162;28;20036;-76
2023/12/30 09:20:01;;;;;;;17.10;3.50;;;;;;;6.49;100.00;101300.41;5072621;28;20036;-76
2023/12/30 09:22:27;;;;;;;16.75;3.22;;;;;;;6.46;100.00;101298.66;5072278;28;20040;-76
2023/12/30 09:24:53;;;;;;;12.57;3.05;;;;;;;6.48;100.00;101301.28;5048111;28;20398;-76
2023/12/30 09:27:19;;;;;;;14.05;3.25;;;;;;;6.49;100.00;101299.53;5022312;28;20144;-76
2023/12/30 09:29:45;;;;;;;12.77;3.28;;;;;;;6.51;100.00;101309.19;5072466;28;20123;-76
2023/12/30 09:32:11;;;;;;;20.15;4.10;;;;;;;6.56;100.00;101312.69;5074063;28;20036;-76
2023/12/30 09:34:36;;;;;;;13.90;3.17;;;;;;;6.54;100.00;101301.28;5073180;28;20028;-76
2023/12/30 09:37:01;;;;;;;17.52;3.00;;;;;;;6.58;100.00;101304.81;5055779;28;20052;-76
2023/12/30 09:39:27;;;;;;;23.77;3.78;;;;;;;6.65;100.00;101311.81;5055719;28;20690;-76
2023/12/30 09:41:52;;;;;;;18.20;3.90;;;;;;;6.64;100.00;101313.59;5070222;28;20044;-76
2023/12/30 09:44:18;;;;;;;18.67;3.90;;;;;;;6.67;100.00;101318.84;5055677;28;20020;-76
2023/12/30 09:46:44;;;;;;;18.30;3.38;;;;;;;6.67;100.00;101320.59;5051354;28;20036;-78
2023/12/30 09:49:14;;;;;;;15.05;3.05;;;;;;;6.71;100.00;101324.13;5036233;28;20546;-78
2023/12/30 09:51:39;;;;;;;17.70;3.22;;;;;;;6.77;100.00;101324.13;5071964;28;20067;-76
2023/12/30 09:54:05;;;;;;;22.13;3.67;;;;;;;6.77;100.00;101322.38;5053920;28;20032;-76
2023/12/30 09:56:31;;;;;;;16.95;3.40;;;;;;;6.78;100.00;101318.88;5073125;28;20107;-76
2023/12/30 09:58:57;;;;;;;16.85;3.30;;;;;;;6.83;100.00;101317.13;5055531;28;20089;-76
2023/12/30 10:01:24;;;;;;;11.95;3.33;;;;;;;6.84;100.00;101318.00;5071898;28;20143;-76
2023/12/30 10:03:49;;;;;;;25.20;3.70;;;;;;;6.88;100.00;101319.78;5073000;28;20044;-77
2023/12/30 10:06:20;;;;;;;17.77;3.85;;;;;;;6.86;100.00;101311.88;5071966;28;20032;-78
2023/12/30 10:08:48;;;;;;;19.25;4.15;;;;;;;6.87;100.00;101310.09;5054790;28;20512;-77
2023/12/30 10:11:13;;;;;;;21.27;4.85;;;;;;;6.93;100.00;101320.66;5071706;28;20040;-77
2023/12/30 10:13:39;;;;;;;21.52;4.22;;;;;;;6.94;100.00;101324.16;5069548;28;20096;-77
2023/12/30 10:16:06;;;;;;;13.10;3.17;;;;;;;6.99;100.00;101318.00;5071766;28;20032;-77
2023/12/30 10:18:32;;;;;;;28.00;4.38;;;;;;;6.97;100.00;101311.84;5059389;28;20047;-77
2023/12/30 10:20:58;;;;;;;19.60;4.30;;;;;;;6.96;100.00;101304.84;5071809;28;20106;-76
2023/12/30 10:23:26;;;;;;;19.02;4.32;;;;;;;7.02;100.00;101320.66;5073025;28;20075;-77
2023/12/30 10:25:52;;;;;;;19.00;4.03;;;;;;;7.07;100.00;101326.81;5071507;28;20171;-77
2023/12/30 10:28:17;;;;;;;17.85;4.57;;;;;;;7.09;100.00;101325.03;5073043;28;20113;-78
2023/12/30 10:30:43;;;;;;;19.55;4.30;;;;;;;7.15;100.00;101339.13;5072843;28;20032;-77
2023/12/30 10:33:13;;;;;;;23.67;4.85;;;;;;;7.17;100.00;101334.69;5054928;28;20036;-77
2023/12/30 10:35:40;;;;;;;18.90;4.10;;;;;;;7.23;100.00;101334.72;5054589;28;20549;-77
2023/12/30 10:38:08;;;;;;;23.05;4.63;;;;;;;7.26;100.00;101335.56;5071530;28;20113;-76
2023/12/30 10:40:33;;;;;;;15.70;4.72;;;;;;;7.27;100.00;101329.44;5054514;28;20036;-76
2023/12/30 10:43:01;;;;;;;21.33;4.35;;;;;;;7.32;100.00;101330.31;5071252;28;20082;-76
2023/12/30 10:45:26;;;;;;;17.83;4.13;;;;;;;7.33;100.00;101334.69;5072502;28;20440;-77
2023/12/30 10:47:55;;;;;;;34.92;7.32;;;;;;;7.37;100.00;101337.31;5038171;28;20127;-77
2023/12/30 10:50:22;;;;;;;24.98;4.40;;;;;;;7.43;100.00;101335.56;5071115;28;20037;-77
2023/12/30 10:53:01;;;;;;;18.15;4.85;;;;;;;7.38;100.00;101321.53;5037773;28;20491;-77
2023/12/30 10:55:31;;;;;;;20.33;5.07;;;;;;;7.53;100.00;101325.91;5072238;28;20032;-77
2023/12/30 10:58:06;;;;;;;15.77;4.60;;;;;;;7.53;100.00;101318.00;5072360;28;20128;-77
2023/12/30 11:00:35;;;;;;;21.85;4.57;;;;;;;7.56;100.00;101312.69;5070884;28;20668;-77
2023/12/30 11:03:02;;;;;;;27.52;4.70;;;;;;;7.61;100.00;101308.28;5072236;28;20078;-77
2023/12/30 11:05:40;;;;;;;15.45;3.97;;;;;;;7.66;100.00;101300.38;5070882;28;20468;-77
2023/12/30 11:08:07;;;;;;;22.38;5.07;;;;;;;7.67;100.00;101288.97;5072118;28;20085;-77
2023/12/30 11:10:33;;;;;;;22.83;5.15;;;;;;;7.71;100.00;101294.22;5070403;28;20036;-77
2023/12/30 11:12:59;;;;;;;22.00;5.85;;;;;;;7.72;100.00;101295.97;5072246;28;20043;-77